createdAt,value
2022-08-02T00:00:45.335Z,2.80
2022-08-02T00:01:44.380Z,2.90
2022-08-02T00:02:44.318Z,2.80
2022-08-02T00:03:44.331Z,3.10
2022-08-02T00:04:44.303Z,2.70
2022-08-02T00:05:44.288Z,2.90
2022-08-02T00:06:45.280Z,3.20
2022-08-02T00:07:44.280Z,3.30
2022-08-02T00:08:44.299Z,3.00
2022-08-02T00:09:44.279Z,3.20
2022-08-02T00:10:44.252Z,2.80
2022-08-02T00:11:44.245Z,3.30
2022-08-02T00:12:44.240Z,3.20
2022-08-02T00:13:44.261Z,3.30
2022-08-02T00:14:44.225Z,3.50
2022-08-02T00:15:44.220Z,3.60
2022-08-02T00:16:44.206Z,2.90
2022-08-02T00:17:44.215Z,3.30
2022-08-02T00:18:44.218Z,2.90
2022-08-02T00:19:44.185Z,3.60
2022-08-02T00:20:44.184Z,3.20
2022-08-02T00:21:44.178Z,3.50
2022-08-02T00:22:44.173Z,3.30
2022-08-02T00:24:06.860Z,3.40
2022-08-02T00:24:45.148Z,3.30
2022-08-02T00:25:55.083Z,3.30
2022-08-02T00:26:45.135Z,3.50
2022-08-02T00:27:44.126Z,3.40
2022-08-02T00:28:44.161Z,3.50
2022-08-02T00:29:52.498Z,3.50
2022-08-02T00:30:45.105Z,3.50
2022-08-02T00:31:44.099Z,3.30
2022-08-02T00:32:44.086Z,3.10
2022-08-02T00:34:28.016Z,3.30
2022-08-02T00:34:45.071Z,3.50
2022-08-02T00:35:44.064Z,3.20
2022-08-02T00:36:44.059Z,3.10
2022-08-02T00:37:44.048Z,3.40
2022-08-02T00:38:44.065Z,3.30
2022-08-02T00:39:44.051Z,3.50
2022-08-02T00:40:44.019Z,3.40
2022-08-02T00:41:44.032Z,3.40
2022-08-02T00:42:44.002Z,3.70
2022-08-02T00:43:44.026Z,3.70
2022-08-02T00:44:43.992Z,3.70
2022-08-02T00:46:02.719Z,3.60
2022-08-02T00:46:44.974Z,3.50
2022-08-02T00:47:43.966Z,3.20
2022-08-02T00:48:43.998Z,3.10
2022-08-02T00:49:43.949Z,3.20
2022-08-02T00:50:43.944Z,3.40
2022-08-02T00:51:43.933Z,3.50
2022-08-02T00:52:43.922Z,3.60
2022-08-02T00:53:43.944Z,3.30
2022-08-02T00:54:43.909Z,3.10
2022-08-02T00:55:43.902Z,3.00
2022-08-02T00:56:50.125Z,3.30
2022-08-02T00:57:44.887Z,4.00
2022-08-02T00:58:43.909Z,3.40
2022-08-02T00:59:43.872Z,3.50
2022-08-02T01:00:43.863Z,2.90
2022-08-02T01:01:57.628Z,3.80
2022-08-02T01:02:44.851Z,3.50
2022-08-02T01:03:43.872Z,3.30
2022-08-02T01:04:43.838Z,3.50
2022-08-02T01:05:55.804Z,3.50
2022-08-02T01:06:45.816Z,3.60
2022-08-02T01:07:43.815Z,3.50
2022-08-02T01:08:44.495Z,3.80
2022-08-02T01:09:43.820Z,3.80
2022-08-02T01:10:43.787Z,3.30
2022-08-02T01:11:43.783Z,4.20
2022-08-02T01:12:43.773Z,3.90
2022-08-02T01:13:43.793Z,4.30
2022-08-02T01:14:43.758Z,3.70
2022-08-02T01:15:43.752Z,3.60
2022-08-02T01:16:43.743Z,3.60
2022-08-02T01:17:43.737Z,3.50
2022-08-02T01:18:43.737Z,3.40
2022-08-02T01:19:43.745Z,3.30
2022-08-02T01:20:43.711Z,3.50
2022-08-02T01:21:43.709Z,3.20
2022-08-02T01:23:01.429Z,3.50
2022-08-02T01:23:45.688Z,3.80
2022-08-02T01:24:43.703Z,3.60
2022-08-02T01:25:43.674Z,3.80
2022-08-02T01:26:43.669Z,3.20
2022-08-02T01:27:43.663Z,3.80
2022-08-02T01:28:43.654Z,3.30
2022-08-02T01:29:43.702Z,3.90
2022-08-02T01:30:43.639Z,3.50
2022-08-02T01:31:43.646Z,3.40
2022-08-02T01:32:43.628Z,3.70
2022-08-02T01:33:43.615Z,3.90
2022-08-02T01:34:43.636Z,3.90
2022-08-02T01:35:51.104Z,4.40
2022-08-02T01:36:44.673Z,4.10
2022-08-02T01:37:43.588Z,4.60
2022-08-02T01:38:43.584Z,4.40
2022-08-02T01:39:43.596Z,4.70
2022-08-02T01:40:43.569Z,4.20
2022-08-02T01:41:43.562Z,4.40
2022-08-02T01:42:43.549Z,3.90
2022-08-02T01:43:43.546Z,3.90
2022-08-02T01:44:43.558Z,3.70
2022-08-02T01:45:43.529Z,4.00
2022-08-02T01:46:43.519Z,3.80
2022-08-02T01:47:43.510Z,3.40
2022-08-02T01:48:43.505Z,3.40
2022-08-02T01:49:43.578Z,3.40
2022-08-02T01:50:43.488Z,3.70
2022-08-02T01:51:43.478Z,3.70
2022-08-02T01:52:53.155Z,3.90
2022-08-02T01:53:44.459Z,3.50
2022-08-02T01:54:43.480Z,3.80
2022-08-02T01:55:57.783Z,3.50
2022-08-02T01:56:44.429Z,3.70
2022-08-02T01:57:43.426Z,3.60
2022-08-02T01:58:43.419Z,3.60
2022-08-02T01:59:43.439Z,3.70
2022-08-02T02:00:43.406Z,3.90
2022-08-02T02:01:43.448Z,3.70
2022-08-02T02:02:43.391Z,3.90
2022-08-02T02:03:43.394Z,3.80
2022-08-02T02:04:43.402Z,3.80
2022-08-02T02:05:43.371Z,4.00
2022-08-02T02:06:43.358Z,3.80
2022-08-02T02:07:43.358Z,3.70
2022-08-02T02:08:43.341Z,3.90
2022-08-02T02:09:50.239Z,3.60
2022-08-02T02:10:44.324Z,3.80
2022-08-02T02:12:05.311Z,3.50
2022-08-02T02:12:44.320Z,3.70
2022-08-02T02:13:43.301Z,4.10
2022-08-02T02:14:51.818Z,4.20
2022-08-02T02:15:44.289Z,3.60
2022-08-02T02:16:43.282Z,3.90
2022-08-02T02:17:52.770Z,3.70
2022-08-02T02:18:44.263Z,3.70
2022-08-02T02:19:43.283Z,3.70
2022-08-02T02:20:43.254Z,4.20
2022-08-02T02:21:43.289Z,4.40
2022-08-02T02:22:43.229Z,4.20
2022-08-02T02:23:44.224Z,4.50
2022-08-02T02:24:43.235Z,4.60
2022-08-02T02:25:46.807Z,4.20
2022-08-02T02:26:51.908Z,4.00
2022-08-02T02:27:44.424Z,3.90
2022-08-02T02:28:43.186Z,3.80
2022-08-02T02:29:43.202Z,4.00
2022-08-02T02:30:43.171Z,4.00
2022-08-02T02:31:43.161Z,3.90
2022-08-02T02:32:43.152Z,4.10
2022-08-02T02:33:43.144Z,4.10
2022-08-02T02:34:43.149Z,3.90
2022-08-02T02:35:43.154Z,3.90
2022-08-02T02:36:43.123Z,3.70
2022-08-02T02:37:43.113Z,3.50
2022-08-02T02:38:43.107Z,3.90
2022-08-02T02:39:43.094Z,3.90
2022-08-02T02:40:43.117Z,4.20
2022-08-02T02:41:43.084Z,3.90
2022-08-02T02:42:43.078Z,3.90
2022-08-02T02:43:44.067Z,3.80
2022-08-02T02:44:43.059Z,3.70
2022-08-02T02:45:43.085Z,4.00
2022-08-02T02:46:43.046Z,3.60
2022-08-02T02:47:43.035Z,3.70
2022-08-02T02:48:43.028Z,3.60
2022-08-02T02:49:43.026Z,3.80
2022-08-02T02:50:43.037Z,3.70
2022-08-02T02:51:43.007Z,3.90
2022-08-02T02:52:42.996Z,4.00
2022-08-02T02:54:32.580Z,4.60
2022-08-02T02:54:43.982Z,4.20
2022-08-02T02:56:01.885Z,4.20
2022-08-02T02:56:43.963Z,3.80
2022-08-02T02:57:42.964Z,4.00
2022-08-02T02:58:42.960Z,4.10
2022-08-02T02:59:49.519Z,3.90
2022-08-02T03:00:43.981Z,4.20
2022-08-02T03:01:55.473Z,4.50
2022-08-02T03:02:43.918Z,4.20
2022-08-02T03:03:42.917Z,3.90
2022-08-02T03:04:57.444Z,4.30
2022-08-02T03:05:43.923Z,4.20
2022-08-02T03:06:42.893Z,4.30
2022-08-02T03:07:42.886Z,4.00
2022-08-02T03:08:42.884Z,3.60
2022-08-02T03:09:42.876Z,3.90
2022-08-02T03:10:42.887Z,3.70
2022-08-02T03:11:42.863Z,4.00
2022-08-02T03:12:42.852Z,3.60
2022-08-02T03:13:42.840Z,3.70
2022-08-02T03:14:42.842Z,3.80
2022-08-02T03:15:42.858Z,3.50
2022-08-02T03:16:42.825Z,3.50
2022-08-02T03:17:42.818Z,3.70
2022-08-02T03:18:42.807Z,3.40
2022-08-02T03:19:42.798Z,3.30
2022-08-02T03:20:42.815Z,3.70
2022-08-02T03:21:42.787Z,3.60
2022-08-02T03:22:42.778Z,4.10
2022-08-02T03:23:42.782Z,3.60
2022-08-02T03:24:42.785Z,3.80
2022-08-02T03:25:42.749Z,3.90
2022-08-02T03:26:42.745Z,3.30
2022-08-02T03:27:42.756Z,3.50
2022-08-02T03:28:42.721Z,4.10
2022-08-02T03:29:42.883Z,3.30
2022-08-02T03:30:43.706Z,3.40
2022-08-02T03:31:42.727Z,3.40
2022-08-02T03:32:42.695Z,3.20
2022-08-02T03:33:42.685Z,3.60
2022-08-02T03:34:42.721Z,3.60
2022-08-02T03:35:42.666Z,3.60
2022-08-02T03:36:42.684Z,3.20
2022-08-02T03:37:42.652Z,3.60
2022-08-02T03:38:42.646Z,3.40
2022-08-02T03:39:52.955Z,3.20
2022-08-02T03:40:43.657Z,3.30
2022-08-02T03:41:42.623Z,3.30
2022-08-02T03:42:42.611Z,3.30
2022-08-02T03:43:42.607Z,3.30
2022-08-02T03:44:42.619Z,3.10
2022-08-02T03:45:42.596Z,2.90
2022-08-02T03:46:42.581Z,2.80
2022-08-02T03:47:42.577Z,3.00
2022-08-02T03:48:42.565Z,3.40
2022-08-02T03:49:42.590Z,3.20
2022-08-02T03:50:42.546Z,3.50
2022-08-02T03:51:42.547Z,3.40
2022-08-02T03:52:42.542Z,3.30
2022-08-02T03:53:42.528Z,3.30
2022-08-02T03:54:45.395Z,3.20
2022-08-02T03:55:42.523Z,3.40
2022-08-02T03:56:42.501Z,3.20
2022-08-02T03:57:42.503Z,3.30
2022-08-02T03:58:45.835Z,3.30
2022-08-02T03:59:44.518Z,3.10
2022-08-02T04:00:42.510Z,3.40
2022-08-02T04:01:42.471Z,3.50
2022-08-02T04:02:42.461Z,3.20
2022-08-02T04:03:42.458Z,3.20
2022-08-02T04:04:42.471Z,3.20
2022-08-02T04:06:03.542Z,3.40
2022-08-02T04:06:43.448Z,3.60
2022-08-02T04:08:33.741Z,4.00
2022-08-02T04:08:43.413Z,4.90
2022-08-02T04:09:42.437Z,4.10
2022-08-02T04:10:42.402Z,4.50
2022-08-02T04:11:42.446Z,4.20
2022-08-02T04:12:42.390Z,5.10
2022-08-02T04:13:42.380Z,5.30
2022-08-02T04:14:42.397Z,4.60
2022-08-02T04:15:42.366Z,4.20
2022-08-02T04:16:42.360Z,4.40
2022-08-02T04:17:42.351Z,5.00
2022-08-02T04:18:42.342Z,4.90
2022-08-02T04:19:42.367Z,5.00
2022-08-02T04:20:42.330Z,5.70
2022-08-02T04:21:51.633Z,5.40
2022-08-02T04:22:43.314Z,5.30
2022-08-02T04:23:42.300Z,5.50
2022-08-02T04:24:42.321Z,6.30
2022-08-02T04:25:42.293Z,7.50
2022-08-02T04:26:42.282Z,6.40
2022-08-02T04:27:51.078Z,5.90
2022-08-02T04:28:43.265Z,6.30
2022-08-02T04:29:46.772Z,6.00
2022-08-02T04:30:43.249Z,6.40
2022-08-02T04:31:42.245Z,6.70
2022-08-02T04:32:42.230Z,6.70
2022-08-02T04:33:42.221Z,8.70
2022-08-02T04:34:47.395Z,6.90
2022-08-02T04:35:43.208Z,5.60
2022-08-02T04:36:42.197Z,5.50
2022-08-02T04:38:09.963Z,5.30
2022-08-02T04:38:43.188Z,6.10
2022-08-02T04:39:42.208Z,6.10
2022-08-02T04:40:42.173Z,6.00
2022-08-02T04:41:43.779Z,7.00
2022-08-02T04:42:42.158Z,6.80
2022-08-02T04:43:42.148Z,5.10
2022-08-02T04:44:42.139Z,4.90
2022-08-02T04:45:42.157Z,4.30
2022-08-02T04:46:42.124Z,4.50
2022-08-02T04:48:03.680Z,5.70
2022-08-02T04:48:44.111Z,5.50
2022-08-02T04:49:42.126Z,6.10
2022-08-02T04:50:42.116Z,6.30
2022-08-02T04:51:42.091Z,5.50
2022-08-02T04:52:45.762Z,5.50
2022-08-02T04:53:43.071Z,5.10
2022-08-02T04:54:42.070Z,5.10
2022-08-02T04:55:42.085Z,4.70
2022-08-02T04:56:42.050Z,4.10
2022-08-02T04:57:52.490Z,4.30
2022-08-02T04:58:43.036Z,4.60
2022-08-02T04:59:42.033Z,4.80
2022-08-02T05:00:42.091Z,5.60
2022-08-02T05:01:42.003Z,5.40
2022-08-02T05:02:41.999Z,5.70
2022-08-02T05:03:41.997Z,5.20
2022-08-02T05:04:41.985Z,5.90
2022-08-02T05:05:42.017Z,7.00
2022-08-02T05:06:41.960Z,5.70
2022-08-02T05:07:41.957Z,5.90
2022-08-02T05:08:41.953Z,6.20
2022-08-02T05:09:41.943Z,7.20
2022-08-02T05:10:41.959Z,6.40
2022-08-02T05:11:41.928Z,7.00
2022-08-02T05:12:41.928Z,6.60
2022-08-02T05:13:58.507Z,6.20
2022-08-02T05:14:42.899Z,6.50
2022-08-02T05:15:41.920Z,6.70
2022-08-02T05:16:41.886Z,6.50
2022-08-02T05:17:47.746Z,6.80
2022-08-02T05:18:42.864Z,7.10
2022-08-02T05:19:41.860Z,6.20
2022-08-02T05:20:41.879Z,6.20
2022-08-02T05:21:41.847Z,5.60
2022-08-02T05:22:41.841Z,4.90
2022-08-02T05:23:41.835Z,4.80
2022-08-02T05:24:41.825Z,4.50
2022-08-02T05:25:41.840Z,4.80
2022-08-02T05:26:41.807Z,4.40
2022-08-02T05:27:41.795Z,4.00
2022-08-02T05:28:41.789Z,4.40
2022-08-02T05:29:41.779Z,4.70
2022-08-02T05:30:42.801Z,4.80
2022-08-02T05:31:41.762Z,4.80
2022-08-02T05:32:41.755Z,4.40
2022-08-02T05:33:41.748Z,4.30
2022-08-02T05:34:41.738Z,3.90
2022-08-02T05:35:41.758Z,5.80
2022-08-02T05:36:42.219Z,6.50
2022-08-02T05:37:43.042Z,7.30
2022-08-02T05:38:41.720Z,6.90
2022-08-02T05:39:41.696Z,5.90
2022-08-02T05:40:54.551Z,5.80
2022-08-02T05:41:42.701Z,5.70
2022-08-02T05:42:41.678Z,5.60
2022-08-02T05:43:41.669Z,6.00
2022-08-02T05:44:41.667Z,5.00
2022-08-02T05:45:41.700Z,5.90
2022-08-02T05:46:41.646Z,5.30
2022-08-02T05:47:41.644Z,5.00
2022-08-02T05:48:41.631Z,5.30
2022-08-02T05:49:41.756Z,4.40
2022-08-02T05:50:41.610Z,5.00
2022-08-02T05:51:41.633Z,4.50
2022-08-02T05:52:41.606Z,4.90
2022-08-02T05:53:41.591Z,5.10
2022-08-02T05:54:41.589Z,5.30
2022-08-02T05:55:41.579Z,5.70
2022-08-02T05:56:41.614Z,5.40
2022-08-02T05:57:43.448Z,5.60
2022-08-02T05:58:41.560Z,5.40
2022-08-02T05:59:41.559Z,5.30
2022-08-02T06:00:41.552Z,5.20
2022-08-02T06:01:41.610Z,5.40
2022-08-02T06:02:41.534Z,5.50
2022-08-02T06:03:41.567Z,5.20
2022-08-02T06:04:41.540Z,5.70
2022-08-02T06:05:41.515Z,5.00
2022-08-02T06:06:41.982Z,5.40
2022-08-02T06:07:41.499Z,5.70
2022-08-02T06:08:44.556Z,5.90
2022-08-02T06:09:43.472Z,5.60
2022-08-02T06:10:41.473Z,6.30
2022-08-02T06:11:41.483Z,6.20
2022-08-02T06:12:42.444Z,5.90
2022-08-02T06:13:41.439Z,6.40
2022-08-02T06:14:41.430Z,6.10
2022-08-02T06:15:52.819Z,5.70
2022-08-02T06:16:42.645Z,6.00
2022-08-02T06:17:41.893Z,6.30
2022-08-02T06:18:41.402Z,6.40
2022-08-02T06:19:51.989Z,7.40
2022-08-02T06:20:42.385Z,6.30
2022-08-02T06:22:35.544Z,6.20
2022-08-02T06:22:42.672Z,7.00
2022-08-02T06:23:41.361Z,6.10
2022-08-02T06:24:42.351Z,5.60
2022-08-02T06:25:50.542Z,5.50
2022-08-02T06:26:42.353Z,5.60
2022-08-02T06:27:41.330Z,5.50
2022-08-02T06:28:41.320Z,5.90
2022-08-02T06:29:41.834Z,5.70
2022-08-02T06:30:41.301Z,5.60
2022-08-02T06:31:41.323Z,5.20
2022-08-02T06:32:41.287Z,5.50
2022-08-02T06:33:41.277Z,5.30
2022-08-02T06:34:41.270Z,5.10
2022-08-02T06:35:41.264Z,5.00
2022-08-02T06:36:41.285Z,4.80
2022-08-02T06:37:41.247Z,4.90
2022-08-02T06:38:41.238Z,5.00
2022-08-02T06:39:41.960Z,4.40
2022-08-02T06:40:41.219Z,3.70
2022-08-02T06:41:41.210Z,4.50
2022-08-02T06:42:41.227Z,4.20
2022-08-02T06:43:41.205Z,4.30
2022-08-02T06:44:53.007Z,4.70
2022-08-02T06:45:43.191Z,4.80
2022-08-02T06:47:11.065Z,4.40
2022-08-02T06:47:42.193Z,4.80
2022-08-02T06:48:41.164Z,4.70
2022-08-02T06:49:52.921Z,4.50
2022-08-02T06:50:42.221Z,4.40
2022-08-02T06:51:41.155Z,4.20
2022-08-02T06:52:41.149Z,3.80
2022-08-02T06:53:41.126Z,3.60
2022-08-02T06:54:41.109Z,4.10
2022-08-02T06:55:44.087Z,3.60
2022-08-02T06:56:41.100Z,4.00
2022-08-02T06:57:41.116Z,3.80
2022-08-02T06:58:41.086Z,4.10
2022-08-02T06:59:41.093Z,3.60
2022-08-02T07:00:41.063Z,3.30
2022-08-02T07:01:41.126Z,3.70
2022-08-02T07:02:41.069Z,3.70
2022-08-02T07:03:41.037Z,3.30
2022-08-02T07:04:41.034Z,3.60
2022-08-02T07:05:41.030Z,3.50
2022-08-02T07:06:41.022Z,3.70
2022-08-02T07:07:41.041Z,3.70
2022-08-02T07:08:41.015Z,2.90
2022-08-02T07:09:56.847Z,3.70
2022-08-02T07:10:41.986Z,3.50
2022-08-02T07:11:40.984Z,3.70
2022-08-02T07:12:41.003Z,3.70
2022-08-02T07:13:40.971Z,3.30
2022-08-02T07:14:40.965Z,3.10
2022-08-02T07:15:49.193Z,3.30
2022-08-02T07:16:41.947Z,3.10
2022-08-02T07:17:41.967Z,3.10
2022-08-02T07:18:40.956Z,3.10
2022-08-02T07:19:40.931Z,3.00
2022-08-02T07:20:40.969Z,3.00
2022-08-02T07:21:59.505Z,2.60
2022-08-02T07:22:41.941Z,2.70
2022-08-02T07:23:40.904Z,2.60
2022-08-02T07:24:40.899Z,2.70
2022-08-02T07:26:03.078Z,2.60
2022-08-02T07:27:08.560Z,2.70
2022-08-02T07:27:42.906Z,2.80
2022-08-02T07:28:40.876Z,2.70
2022-08-02T07:29:46.356Z,2.40
2022-08-02T07:30:41.857Z,2.50
2022-08-02T07:31:40.855Z,2.20
2022-08-02T07:32:40.937Z,2.60
2022-08-02T07:33:43.309Z,2.10
2022-08-02T07:34:41.841Z,2.40
2022-08-02T07:35:40.832Z,2.40
2022-08-02T07:36:40.815Z,2.40
2022-08-02T07:37:53.359Z,2.40
2022-08-02T07:38:41.805Z,2.50
2022-08-02T07:39:40.800Z,2.50
2022-08-02T07:40:40.792Z,2.00
2022-08-02T07:41:40.788Z,2.10
2022-08-02T07:42:40.802Z,2.10
2022-08-02T07:43:40.770Z,2.60
2022-08-02T07:44:40.773Z,2.30
2022-08-02T07:45:54.216Z,2.10
2022-08-02T07:46:41.753Z,2.00
2022-08-02T07:47:40.772Z,2.30
2022-08-02T07:48:40.746Z,2.70
2022-08-02T07:49:40.745Z,2.50
2022-08-02T07:50:40.730Z,2.00
2022-08-02T07:51:40.727Z,2.00
2022-08-02T07:52:40.762Z,1.80
2022-08-02T07:53:51.214Z,1.90
2022-08-02T07:54:41.703Z,1.90
2022-08-02T07:55:40.874Z,1.90
2022-08-02T07:56:41.694Z,1.90
2022-08-02T07:57:45.838Z,1.90
2022-08-02T07:58:42.685Z,2.00
2022-08-02T07:59:40.680Z,1.70
2022-08-02T08:00:40.684Z,1.80
2022-08-02T08:01:40.748Z,1.90
2022-08-02T08:02:41.694Z,2.20
2022-08-02T08:03:40.657Z,2.00
2022-08-02T08:04:40.654Z,2.00
2022-08-02T08:05:40.662Z,1.90
2022-08-02T08:06:40.641Z,2.20
2022-08-02T08:07:40.661Z,2.20
2022-08-02T08:08:40.641Z,1.80
2022-08-02T08:09:40.626Z,1.80
2022-08-02T08:10:40.627Z,1.90
2022-08-02T08:11:40.615Z,1.80
2022-08-02T08:12:40.633Z,1.40
2022-08-02T08:13:40.622Z,1.50
2022-08-02T08:14:40.603Z,1.80
2022-08-02T08:15:40.594Z,1.40
2022-08-02T08:16:40.589Z,1.40
2022-08-02T08:17:40.602Z,1.50
2022-08-02T08:18:40.578Z,1.30
2022-08-02T08:19:51.104Z,1.20
2022-08-02T08:20:41.570Z,1.40
2022-08-02T08:21:40.552Z,1.10
2022-08-02T08:22:40.547Z,1.10
2022-08-02T08:23:40.569Z,0.90
2022-08-02T08:24:40.533Z,1.00
2022-08-02T08:25:41.405Z,1.00
2022-08-02T08:26:40.527Z,1.20
2022-08-02T08:27:40.518Z,1.30
2022-08-02T08:28:40.545Z,1.10
2022-08-02T08:29:40.515Z,1.30
2022-08-02T08:30:40.502Z,1.20
2022-08-02T08:31:40.492Z,1.20
2022-08-02T08:32:40.492Z,1.10
2022-08-02T08:33:40.526Z,1.10
2022-08-02T08:34:40.507Z,1.40
2022-08-02T08:35:40.476Z,1.00
2022-08-02T08:36:40.470Z,0.90
2022-08-02T08:37:40.457Z,1.00
2022-08-02T08:38:41.479Z,0.90
2022-08-02T08:39:56.245Z,0.80
2022-08-02T08:40:41.446Z,0.80
2022-08-02T08:41:40.436Z,0.90
2022-08-02T08:42:40.462Z,0.80
2022-08-02T08:43:40.465Z,1.10
2022-08-02T08:44:40.437Z,1.20
2022-08-02T08:45:40.429Z,1.00
2022-08-02T08:46:40.445Z,1.00
2022-08-02T08:47:40.421Z,1.10
2022-08-02T08:48:40.433Z,1.40
2022-08-02T08:49:40.408Z,1.10
2022-08-02T08:50:41.396Z,1.20
2022-08-02T08:51:40.396Z,1.40
2022-08-02T08:52:40.391Z,1.20
2022-08-02T08:53:40.400Z,1.10
2022-08-02T08:54:40.389Z,1.00
2022-08-02T08:55:40.366Z,1.20
2022-08-02T08:56:40.357Z,1.10
2022-08-02T08:57:40.357Z,1.10
2022-08-02T08:58:40.378Z,1.20
2022-08-02T08:59:40.343Z,1.00
2022-08-02T09:00:40.339Z,0.90
2022-08-02T09:01:50.493Z,1.20
2022-08-02T09:02:41.328Z,1.00
2022-08-02T09:03:40.367Z,1.10
2022-08-02T09:04:40.318Z,0.90
2022-08-02T09:05:40.309Z,1.20
2022-08-02T09:06:40.305Z,1.10
2022-08-02T09:07:40.302Z,1.20
2022-08-02T09:08:40.320Z,0.90
2022-08-02T09:09:40.286Z,1.00
2022-08-02T09:10:40.277Z,1.40
2022-08-02T09:11:40.270Z,0.90
2022-08-02T09:12:40.262Z,1.40
2022-08-02T09:13:45.700Z,1.10
2022-08-02T09:14:41.248Z,1.10
2022-08-02T09:15:40.243Z,0.90
2022-08-02T09:16:40.236Z,0.90
2022-08-02T09:17:40.229Z,1.00
2022-08-02T09:18:40.248Z,0.90
2022-08-02T09:19:46.153Z,0.90
2022-08-02T09:20:41.208Z,0.70
2022-08-02T09:21:40.199Z,0.90
2022-08-02T09:22:40.203Z,1.00
2022-08-02T09:23:40.216Z,1.20
2022-08-02T09:24:40.188Z,1.00
2022-08-02T09:25:40.180Z,0.80
2022-08-02T09:26:41.174Z,0.90
2022-08-02T09:27:40.171Z,0.90
2022-08-02T09:28:40.187Z,0.90
2022-08-02T09:30:05.952Z,0.90
2022-08-02T09:30:42.150Z,1.10
2022-08-02T09:31:49.411Z,0.80
2022-08-02T09:32:42.149Z,1.00
2022-08-02T09:33:40.155Z,0.90
2022-08-02T09:34:40.124Z,0.90
2022-08-02T09:36:06.548Z,1.00
2022-08-02T09:36:41.111Z,0.90
2022-08-02T09:37:40.116Z,1.00
2022-08-02T09:38:40.131Z,1.00
2022-08-02T09:39:40.107Z,0.90
2022-08-02T09:40:41.083Z,0.90
2022-08-02T09:41:40.084Z,0.80
2022-08-02T09:42:40.071Z,0.80
2022-08-02T09:43:51.976Z,0.70
2022-08-02T09:44:41.059Z,0.70
2022-08-02T09:45:40.055Z,0.80
2022-08-02T09:46:40.050Z,0.80
2022-08-02T09:47:40.048Z,0.70
2022-08-02T09:48:40.065Z,0.80
2022-08-02T09:49:40.115Z,0.60
2022-08-02T09:50:40.021Z,0.50
2022-08-02T09:51:40.015Z,0.70
2022-08-02T09:52:43.655Z,0.60
2022-08-02T09:53:40.007Z,0.70
2022-08-02T09:54:40.024Z,0.70
2022-08-02T09:55:39.990Z,0.50
2022-08-02T09:56:39.977Z,0.80
2022-08-02T09:57:39.972Z,0.70
2022-08-02T09:58:39.969Z,0.70
2022-08-02T09:59:39.986Z,0.60
2022-08-02T10:00:52.574Z,0.70
2022-08-02T10:01:46.373Z,0.70
2022-08-02T10:02:41.006Z,0.90
2022-08-02T10:03:39.995Z,0.70
2022-08-02T10:04:52.366Z,0.70
2022-08-02T10:05:49.556Z,0.60
2022-08-02T10:06:40.915Z,0.70
2022-08-02T10:07:39.909Z,0.60
2022-08-02T10:08:39.904Z,0.60
2022-08-02T10:09:43.259Z,0.70
2022-08-02T10:10:41.885Z,0.60
2022-08-02T10:11:39.884Z,0.70
2022-08-02T10:12:39.881Z,0.70
2022-08-02T10:13:39.862Z,0.60
2022-08-02T10:14:39.888Z,0.60
2022-08-02T10:15:39.853Z,1.00
2022-08-02T10:16:40.862Z,0.60
2022-08-02T10:17:39.832Z,0.60
2022-08-02T10:18:41.338Z,0.60
2022-08-02T10:20:03.298Z,0.60
2022-08-02T10:20:40.813Z,0.60
2022-08-02T10:21:42.718Z,0.50
2022-08-02T10:22:40.797Z,0.80
2022-08-02T10:23:39.789Z,0.60
2022-08-02T10:24:39.809Z,0.60
2022-08-02T10:25:40.772Z,0.60
2022-08-02T10:26:39.770Z,0.70
2022-08-02T10:28:03.750Z,0.70
2022-08-02T10:28:41.755Z,0.60
2022-08-02T10:29:54.004Z,0.90
2022-08-02T10:30:40.765Z,0.70
2022-08-02T10:31:39.732Z,0.90
2022-08-02T10:32:39.730Z,0.70
2022-08-02T10:33:39.722Z,0.60
2022-08-02T10:34:39.736Z,0.60
2022-08-02T10:35:39.709Z,0.40
2022-08-02T10:36:39.705Z,0.50
2022-08-02T10:37:39.691Z,0.80
2022-08-02T10:38:39.683Z,0.60
2022-08-02T10:39:39.702Z,0.70
2022-08-02T10:40:39.674Z,0.50
2022-08-02T10:41:39.663Z,0.70
2022-08-02T10:42:39.662Z,0.60
2022-08-02T10:43:39.650Z,0.60
2022-08-02T10:44:39.667Z,0.50
2022-08-02T10:45:39.634Z,0.40
2022-08-02T10:46:39.621Z,0.40
2022-08-02T10:47:39.646Z,0.30
2022-08-02T10:48:39.676Z,0.40
2022-08-02T10:49:40.555Z,0.40
2022-08-02T10:50:40.596Z,0.40
2022-08-02T10:51:39.594Z,0.60
2022-08-02T10:52:39.584Z,0.50
2022-08-02T10:53:39.578Z,0.40
2022-08-02T10:54:39.594Z,0.90
2022-08-02T10:55:39.563Z,0.80
2022-08-02T10:56:39.556Z,0.40
2022-08-02T10:57:39.548Z,0.40
2022-08-02T10:58:39.541Z,0.50
2022-08-02T10:59:39.555Z,0.50
2022-08-02T11:00:39.593Z,0.40
2022-08-02T11:01:40.295Z,0.40
2022-08-02T11:02:39.515Z,0.50
2022-08-02T11:03:40.302Z,0.30
2022-08-02T11:04:39.522Z,0.40
2022-08-02T11:05:42.873Z,0.40
2022-08-02T11:06:39.478Z,0.40
2022-08-02T11:07:39.479Z,0.40
2022-08-02T11:08:39.467Z,0.40
2022-08-02T11:09:39.484Z,0.40
2022-08-02T11:10:39.483Z,0.40
2022-08-02T11:11:53.741Z,0.50
2022-08-02T11:12:40.432Z,0.60
2022-08-02T11:13:39.429Z,0.40
2022-08-02T11:14:39.447Z,0.40
2022-08-02T11:15:39.456Z,0.40
2022-08-02T11:16:39.408Z,0.40
2022-08-02T11:17:41.155Z,0.50
2022-08-02T11:18:39.393Z,0.40
2022-08-02T11:19:39.410Z,0.40
2022-08-02T11:20:39.377Z,0.40
2022-08-02T11:21:39.366Z,0.40
2022-08-02T11:22:39.372Z,0.60
2022-08-02T11:23:44.836Z,0.60
2022-08-02T11:24:40.374Z,0.40
2022-08-02T11:26:02.722Z,0.50
2022-08-02T11:26:41.338Z,0.40
2022-08-02T11:27:39.341Z,0.40
2022-08-02T11:28:39.325Z,0.40
2022-08-02T11:29:39.340Z,0.60
2022-08-02T11:30:39.306Z,0.40
2022-08-02T11:31:39.303Z,0.60
2022-08-02T11:32:39.288Z,0.50
2022-08-02T11:33:39.284Z,0.50
2022-08-02T11:34:39.301Z,0.60
2022-08-02T11:35:39.263Z,0.40
2022-08-02T11:36:39.259Z,0.60
2022-08-02T11:37:39.256Z,0.50
2022-08-02T11:38:39.251Z,0.50
2022-08-02T11:39:39.272Z,0.60
2022-08-02T11:40:39.236Z,0.60
2022-08-02T11:41:47.427Z,0.60
2022-08-02T11:42:40.217Z,0.50
2022-08-02T11:43:39.231Z,0.60
2022-08-02T11:44:39.225Z,0.60
2022-08-02T11:45:39.192Z,0.50
2022-08-02T11:46:39.186Z,0.50
2022-08-02T11:47:39.183Z,0.70
2022-08-02T11:48:39.176Z,0.70
2022-08-02T11:49:39.259Z,0.70
2022-08-02T11:50:39.160Z,0.70
2022-08-02T11:51:39.152Z,0.70
2022-08-02T11:52:39.142Z,0.70
2022-08-02T11:53:39.136Z,0.60
2022-08-02T11:54:39.159Z,0.60
2022-08-02T11:55:39.115Z,0.80
2022-08-02T11:56:39.113Z,0.70
2022-08-02T11:58:03.174Z,0.40
2022-08-02T11:58:41.881Z,0.40
2022-08-02T11:59:39.089Z,0.70
2022-08-02T12:00:39.104Z,0.60
2022-08-02T12:01:45.229Z,0.50
2022-08-02T12:02:40.064Z,0.50
2022-08-02T12:03:39.286Z,0.50
2022-08-02T12:04:39.052Z,0.70
2022-08-02T12:06:04.418Z,0.50
2022-08-02T12:06:41.041Z,0.50
2022-08-02T12:07:45.681Z,0.80
2022-08-02T12:08:40.021Z,0.50
2022-08-02T12:09:41.230Z,0.70
2022-08-02T12:10:40.048Z,0.70
2022-08-02T12:11:39.371Z,0.70
2022-08-02T12:12:38.994Z,0.70
2022-08-02T12:13:38.981Z,0.70
2022-08-02T12:14:38.978Z,0.60
2022-08-02T12:15:38.994Z,0.70
2022-08-02T12:16:38.978Z,0.70
2022-08-02T12:17:38.951Z,0.70
2022-08-02T12:18:39.943Z,1.00
2022-08-02T12:19:38.937Z,2.40
2022-08-02T12:20:38.957Z,1.30
2022-08-02T12:21:38.921Z,0.80
2022-08-02T12:22:41.809Z,1.00
2022-08-02T12:23:39.905Z,0.70
2022-08-02T12:24:39.895Z,0.50
2022-08-02T12:25:38.914Z,0.80
2022-08-02T12:26:38.904Z,0.60
2022-08-02T12:27:38.879Z,0.70
2022-08-02T12:28:38.868Z,0.70
2022-08-02T12:29:59.216Z,0.70
2022-08-02T12:30:39.879Z,0.80
2022-08-02T12:31:38.845Z,0.60
2022-08-02T12:32:39.843Z,0.70
2022-08-02T12:33:39.493Z,0.60
2022-08-02T12:34:39.818Z,0.90
2022-08-02T12:35:38.833Z,0.70
2022-08-02T12:36:38.808Z,0.50
2022-08-02T12:37:38.801Z,0.60
2022-08-02T12:38:38.792Z,1.00
2022-08-02T12:39:38.782Z,0.80
2022-08-02T12:40:38.800Z,1.10
2022-08-02T12:41:38.776Z,0.70
2022-08-02T12:42:39.766Z,0.70
2022-08-02T12:43:38.763Z,0.60
2022-08-02T12:44:38.746Z,0.80
2022-08-02T12:45:42.029Z,0.60
2022-08-02T12:46:42.222Z,0.60
2022-08-02T12:47:39.727Z,0.80
2022-08-02T12:48:48.133Z,0.70
2022-08-02T12:49:39.755Z,0.80
2022-08-02T12:50:38.730Z,0.80
2022-08-02T12:51:50.808Z,0.80
2022-08-02T12:52:39.683Z,0.70
2022-08-02T12:53:38.678Z,0.80
2022-08-02T12:54:38.673Z,0.70
2022-08-02T12:55:59.480Z,1.00
2022-08-02T12:56:39.658Z,0.70
2022-08-02T12:57:40.906Z,0.90
2022-08-02T12:58:39.643Z,0.60
2022-08-02T12:59:39.527Z,0.80
2022-08-02T13:00:38.657Z,0.70
2022-08-02T13:01:38.643Z,0.70
2022-08-02T13:02:38.627Z,0.70
2022-08-02T13:04:10.515Z,0.70
2022-08-02T13:04:39.599Z,0.80
2022-08-02T13:05:55.856Z,0.80
2022-08-02T13:06:44.849Z,1.10
2022-08-02T13:07:40.578Z,0.90
2022-08-02T13:08:38.571Z,0.90
2022-08-02T13:09:38.567Z,0.80
2022-08-02T13:10:38.563Z,1.00
2022-08-02T13:11:38.586Z,0.80
2022-08-02T13:12:39.562Z,0.80
2022-08-02T13:13:38.546Z,0.90
2022-08-02T13:14:41.955Z,0.90
2022-08-02T13:15:48.933Z,0.70
2022-08-02T13:16:39.540Z,0.90
2022-08-02T13:17:38.519Z,0.70
2022-08-02T13:18:38.508Z,0.90